Date,TemperatureHighF,TemperatureAvgF,TemperatureLowF,DewpointHighF,DewpointAvgF,DewpointLowF,HumidityHigh,HumidityAvg,HumidityLow,PressureMaxIn,PressureMinIn,WindSpeedMaxMPH,WindSpeedAvgMPH,GustSpeedMaxMPH,PrecipitationSumIn
2013-8-1,97.1,85.6,78.5,79.0,76.3,75.0,90,75,52,30.07,29.96,8,3,10,0.00
2013-8-2,93.4,84.3,77.5,79.0,76.0,74.0,90,77,60,30.03,29.94,10,2,13,0.00
2013-8-3,82.7,78.8,75.6,78.6,75.1,72.0,93,88,76,30.12,30.01,10,3,13,0.02
2013-8-4,96.5,82.7,75.9,80.0,76.3,72.0,96,82,53,30.09,29.98,10,2,18,0.01
2013-8-5,97.8,82.7,74.9,81.0,76.8,73.0,94,83,58,30.03,29.92,7,3,11,0.25
2013-8-6,97.2,83.5,74.5,81.0,77.4,73.0,96,83,59,29.98,29.90,4,2,6,0.02
2013-8-7,87.8,83.3,80.7,79.0,78.0,76.0,92,84,73,29.99,29.91,19,7,24,0.00
2013-8-8,85.0,83.2,81.2,79.0,77.7,76.0,88,83,79,30.04,29.95,15,9,18,0.00
2013-8-9,85.8,82.6,78.8,79.0,76.7,73.0,88,82,74,30.08,29.98,18,8,25,0.02
2013-8-10,87.7,82.4,79.8,80.0,78.2,76.0,93,87,77,30.14,30.05,10,5,13,0.00
2013-8-11,92.5,84.1,80.3,80.0,78.1,76.0,93,83,63,30.15,30.08,8,3,9,0.00
2013-8-12,95.7,85.4,79.4,78.0,77.0,76.0,90,77,57,30.12,30.02,10,3,12,0.00
2013-8-13,86.7,83.3,80.3,79.0,77.6,76.0,89,83,76,30.07,29.95,14,7,17,0.00
2013-8-14,92.3,82.3,78.3,78.0,76.2,75.0,88,82,59,30.02,29.92,14,6,18,0.00
2013-8-15,82.1,80.4,77.9,78.0,76.5,75.0,92,87,81,30.05,29.95,13,5,14,0.01
2013-8-16,89.5,81.1,77.4,79.0,77.3,75.0,94,88,71,30.06,29.98,12,4,13,0.01
2013-8-17,85.1,82.1,79.2,80.0,79.0,78.0,96,90,84,30.09,30.01,11,5,14,0.00
2013-8-18,88.0,82.3,77.6,81.0,78.5,76.0,94,88,79,30.10,30.02,13,6,23,0.21
2013-8-19,90.0,83.3,79.7,80.2,78.7,75.8,94,86,72,30.09,29.97,15,5,16,0.00
2013-8-20,91.2,83.7,79.4,80.0,78.2,75.0,92,83,70,30.09,30.00,14,5,24,0.49
2013-8-21,91.3,82.9,78.9,82.0,78.2,74.0,92,86,72,30.11,30.02,19,5,28,0.17
2013-8-22,91.2,84.5,79.1,82.0,78.9,75.0,93,83,69,30.09,29.98,14,4,19,0.01
2013-8-23,93.2,83.4,79.7,81.0,78.1,74.0,91,84,66,30.02,29.95,16,6,22,0.01
2013-8-24,92.8,84.0,78.9,80.0,78.1,76.0,93,83,67,30.09,29.99,17,4,24,0.01
2013-8-25,89.2,81.9,78.9,78.0,76.5,74.0,93,84,64,30.16,30.05,12,4,16,0.01
2013-8-26,95.1,83.8,77.0,78.0,76.4,75.0,95,79,56,30.13,30.01,12,4,15,0.00
2013-8-27,91.8,82.0,74.2,76.0,74.0,71.0,94,78,57,30.05,29.99,8,3,23,0.66
2013-8-28,94.1,83.8,79.5,77.0,74.5,69.0,82,74,55,30.05,29.97,9,3,13,0.00
2013-8-29,93.7,83.8,75.6,78.0,75.5,72.8,92,77,59,30.05,29.94,11,3,20,0.13
2013-8-30,91.7,83.4,77.3,79.0,76.2,70.0,93,79,60,30.00,29.91,11,4,14,0.00
2013-8-31,91.7,81.9,76.4,80.0,75.3,70.0,90,80,60,29.99,29.90,19,5,22,0.07